createdAt,value
2019-06-08T00:00:24.967Z,5.77
2019-06-08T00:02:54.308Z,7.87
2019-06-08T00:05:23.214Z,3.83
2019-06-08T00:07:55.034Z,4.17
2019-06-08T00:10:25.873Z,2.50
2019-06-08T00:12:56.356Z,3.13
2019-06-08T00:15:25.005Z,6.67
2019-06-08T00:17:53.700Z,1.77
2019-06-08T00:20:23.828Z,5.00
2019-06-08T00:23:03.228Z,3.37
2019-06-08T00:25:35.409Z,4.27
2019-06-08T00:28:03.997Z,3.40
2019-06-08T00:30:35.219Z,4.47
2019-06-08T00:33:04.498Z,4.57
2019-06-08T00:35:33.128Z,3.53
2019-06-08T00:38:01.701Z,3.83
2019-06-08T00:40:33.156Z,6.23
2019-06-08T00:43:01.770Z,2.67
2019-06-08T00:45:30.338Z,1.90
2019-06-08T00:47:59.095Z,2.57
2019-06-08T00:50:29.240Z,2.80
2019-06-08T00:52:58.451Z,2.27
2019-06-08T00:55:27.101Z,3.27
2019-06-08T00:57:57.574Z,3.53
2019-06-08T01:00:26.929Z,5.77
2019-06-08T01:02:55.626Z,2.80
2019-06-08T01:05:26.144Z,3.97
2019-06-08T01:07:56.336Z,3.10
2019-06-08T01:10:25.662Z,2.80
2019-06-08T01:13:01.267Z,2.33
2019-06-08T01:15:33.713Z,5.23
2019-06-08T01:18:03.763Z,5.47
2019-06-08T01:20:29.488Z,4.50
2019-06-08T01:22:58.241Z,3.50
2019-06-08T01:25:28.298Z,4.50
2019-06-08T01:28:00.732Z,2.40
2019-06-08T01:30:30.417Z,2.47
2019-06-08T01:32:59.060Z,3.47
2019-06-08T01:35:28.780Z,3.73
2019-06-08T01:37:58.327Z,2.27
2019-06-08T01:40:29.530Z,3.63
2019-06-08T01:42:58.292Z,3.33
2019-06-08T01:45:30.298Z,1.40
2019-06-08T01:48:18.699Z,2.30
2019-06-08T01:50:34.257Z,4.40
2019-06-08T01:53:04.563Z,4.67
2019-06-08T01:55:33.559Z,5.70
2019-06-08T01:58:02.148Z,4.17
2019-06-08T02:00:37.923Z,2.93
2019-06-08T02:03:01.786Z,6.13
2019-06-08T02:05:30.483Z,3.73
2019-06-08T02:07:59.659Z,3.57
2019-06-08T02:10:30.755Z,2.60
2019-06-08T02:12:59.469Z,3.40
2019-06-08T02:15:35.343Z,4.30
2019-06-08T02:18:05.798Z,6.13
2019-06-08T02:20:35.291Z,5.17
2019-06-08T02:23:06.409Z,6.27
2019-06-08T02:25:36.874Z,2.17
2019-06-08T02:28:05.654Z,6.70
2019-06-08T02:30:41.695Z,2.07
2019-06-08T02:33:05.831Z,5.30
2019-06-08T02:35:37.848Z,3.63
2019-06-08T02:38:07.149Z,2.13
2019-06-08T02:40:36.994Z,3.77
2019-06-08T02:43:06.530Z,3.47
2019-06-08T02:45:36.988Z,4.47
2019-06-08T02:48:06.998Z,4.63
2019-06-08T02:50:50.432Z,4.40
2019-06-08T02:53:19.869Z,4.63
2019-06-08T02:55:49.272Z,3.33
2019-06-08T02:58:18.929Z,4.57
2019-06-08T03:00:49.398Z,3.57
2019-06-08T03:03:18.760Z,3.20
2019-06-08T03:05:51.277Z,2.70
2019-06-08T03:08:20.527Z,4.87
2019-06-08T03:10:53.508Z,4.23
2019-06-08T03:13:23.726Z,4.07
2019-06-08T03:15:52.438Z,4.67
2019-06-08T03:18:21.512Z,4.63
2019-06-08T03:20:50.142Z,5.90
2019-06-08T03:23:18.767Z,7.60
2019-06-08T03:25:53.134Z,3.60
2019-06-08T03:28:17.615Z,4.30
2019-06-08T03:30:53.854Z,3.80
2019-06-08T03:33:16.486Z,4.60
2019-06-08T03:35:55.872Z,4.80
2019-06-08T03:38:15.379Z,3.70
2019-06-08T03:40:45.334Z,2.80
2019-06-08T03:43:14.047Z,4.43
2019-06-08T03:45:45.093Z,3.10
2019-06-08T03:48:13.206Z,4.10
2019-06-08T03:50:43.922Z,3.33
2019-06-08T03:53:12.146Z,6.13
2019-06-08T03:55:42.995Z,4.70
2019-06-08T03:58:11.386Z,3.03
2019-06-08T04:00:40.479Z,4.10
2019-06-08T04:03:09.238Z,5.43
2019-06-08T04:05:40.058Z,5.90
2019-06-08T04:08:08.107Z,6.30
2019-06-08T04:10:37.663Z,5.73
2019-06-08T04:13:11.377Z,5.33
2019-06-08T04:15:42.136Z,6.13
2019-06-08T04:18:11.070Z,6.70
2019-06-08T04:20:44.998Z,2.97
2019-06-08T04:23:12.563Z,6.43
2019-06-08T04:25:47.677Z,2.77
2019-06-08T04:28:16.196Z,9.13
2019-06-08T04:30:45.259Z,6.67
2019-06-08T04:33:15.006Z,3.53
2019-06-08T04:35:45.175Z,8.27
2019-06-08T04:38:14.241Z,4.13
2019-06-08T04:40:47.912Z,6.23
2019-06-08T04:43:16.164Z,5.77
2019-06-08T04:45:45.851Z,7.87
2019-06-08T04:48:15.789Z,4.43
2019-06-08T04:50:45.448Z,3.03
2019-06-08T04:53:14.593Z,3.10
2019-06-08T04:55:45.128Z,6.80
2019-06-08T04:58:14.182Z,6.23
2019-06-08T05:00:43.963Z,6.50
2019-06-08T05:03:13.242Z,5.63
2019-06-08T05:05:43.306Z,4.77
2019-06-08T05:08:12.160Z,7.05
2019-06-08T05:10:41.251Z,6.17
2019-06-08T05:13:10.420Z,5.57
2019-06-08T05:15:39.210Z,8.83
2019-06-08T05:18:07.867Z,4.50
2019-06-08T05:20:39.249Z,5.00
2019-06-08T05:23:06.664Z,6.47
2019-06-08T05:25:35.320Z,9.00
2019-06-08T05:28:04.022Z,4.67
2019-06-08T05:30:32.615Z,4.87
2019-06-08T05:33:01.275Z,8.20
2019-06-08T05:35:29.842Z,6.47
2019-06-08T05:37:58.479Z,10.93
2019-06-08T05:40:27.080Z,7.30
2019-06-08T05:42:55.640Z,6.07
2019-06-08T05:45:24.826Z,12.50
2019-06-08T05:47:53.394Z,7.93
2019-06-08T05:50:22.056Z,8.83
2019-06-08T05:52:50.726Z,6.47
2019-06-08T05:55:19.353Z,8.40
2019-06-08T05:57:50.485Z,6.43
2019-06-08T06:00:23.279Z,6.10
2019-06-08T06:02:51.929Z,9.10
2019-06-08T06:05:21.113Z,8.23
2019-06-08T06:07:51.132Z,5.90
2019-06-08T06:10:20.115Z,8.10
2019-06-08T06:12:49.083Z,5.63
2019-06-08T06:15:18.252Z,5.43
2019-06-08T06:17:48.440Z,7.17
2019-06-08T06:20:17.796Z,9.77
2019-06-08T06:22:49.459Z,5.43
2019-06-08T06:25:18.585Z,9.97
2019-06-08T06:27:47.585Z,9.50
2019-06-08T06:30:16.527Z,8.53
2019-06-08T06:32:46.013Z,10.40
2019-06-08T06:35:15.079Z,8.47
2019-06-08T06:37:43.840Z,8.80
2019-06-08T06:40:12.526Z,9.43
2019-06-08T06:42:42.059Z,12.00
2019-06-08T06:45:11.020Z,7.90
2019-06-08T06:47:44.161Z,9.13
2019-06-08T06:50:13.129Z,5.67
2019-06-08T06:52:42.743Z,9.63
2019-06-08T06:55:12.635Z,8.83
2019-06-08T06:57:43.301Z,9.20
2019-06-08T07:00:12.790Z,10.47
2019-06-08T07:02:41.469Z,7.60
2019-06-08T07:05:16.332Z,11.57
2019-06-08T07:07:45.893Z,10.13
2019-06-08T07:10:14.812Z,6.10
2019-06-08T07:12:44.443Z,11.80
2019-06-08T07:15:16.753Z,6.73
2019-06-08T07:17:46.071Z,8.67
2019-06-08T07:20:14.894Z,8.00
2019-06-08T07:22:43.432Z,6.40
2019-06-08T07:25:12.370Z,8.27
2019-06-08T07:27:40.931Z,8.63
2019-06-08T07:30:09.654Z,7.40
2019-06-08T07:32:38.389Z,11.43
2019-06-08T07:35:07.546Z,8.63
2019-06-08T07:37:36.247Z,10.37
2019-06-08T07:40:06.986Z,13.07
2019-06-08T07:42:36.052Z,9.93
2019-06-08T07:45:06.246Z,9.73
2019-06-08T07:47:34.965Z,8.70
2019-06-08T07:50:05.479Z,10.27
2019-06-08T07:52:34.074Z,10.30
2019-06-08T07:55:02.737Z,18.70
2019-06-08T07:57:31.389Z,10.03
2019-06-08T08:00:00.195Z,11.97
2019-06-08T08:02:29.330Z,12.03
2019-06-08T08:04:58.873Z,11.77
2019-06-08T08:07:27.564Z,13.23
2019-06-08T08:09:56.994Z,14.63
2019-06-08T08:12:25.828Z,11.50
2019-06-08T08:14:55.450Z,12.47
2019-06-08T08:17:24.115Z,8.40
2019-06-08T08:19:53.080Z,11.37
2019-06-08T08:22:25.988Z,13.33
2019-06-08T08:24:54.455Z,9.97
2019-06-08T08:27:22.247Z,12.10
2019-06-08T08:29:51.427Z,9.67
2019-06-08T08:32:20.234Z,5.83
2019-06-08T08:34:50.342Z,8.67
2019-06-08T08:37:19.113Z,10.53
2019-06-08T08:39:47.783Z,10.00
2019-06-08T08:42:18.017Z,15.10
2019-06-08T08:44:48.612Z,14.00
2019-06-08T08:47:18.717Z,10.87
2019-06-08T08:49:47.945Z,10.57
2019-06-08T08:52:17.528Z,9.67
2019-06-08T08:54:47.499Z,13.00
2019-06-08T08:57:18.143Z,9.77
2019-06-08T08:59:50.150Z,14.60
2019-06-08T09:02:21.162Z,15.70
2019-06-08T09:04:47.751Z,12.57
2019-06-08T09:07:18.377Z,11.43
2019-06-08T09:12:28.594Z,7.47
2019-06-08T09:15:00.212Z,8.03
2019-06-08T09:17:28.043Z,10.57
2019-06-08T09:19:58.887Z,7.50
2019-06-08T09:22:28.164Z,6.83
2019-06-08T09:25:01.292Z,8.20
2019-06-08T09:27:28.171Z,8.27
2019-06-08T09:29:59.664Z,11.43
2019-06-08T09:32:28.208Z,8.87
2019-06-08T09:34:59.598Z,7.10
2019-06-08T09:37:28.831Z,7.80
2019-06-08T09:39:58.967Z,9.30
2019-06-08T09:42:28.464Z,9.83
2019-06-08T09:45:00.416Z,12.03
2019-06-08T09:47:28.021Z,10.87
2019-06-08T09:50:01.399Z,11.40
2019-06-08T09:52:28.129Z,9.30
2019-06-08T09:55:01.986Z,14.33
2019-06-08T09:57:28.429Z,10.83
2019-06-08T09:59:59.782Z,8.33
2019-06-08T10:02:28.348Z,8.73
2019-06-08T10:05:00.481Z,6.77
2019-06-08T10:07:28.611Z,12.53
2019-06-08T10:10:00.339Z,10.23
2019-06-08T10:12:28.598Z,8.83
2019-06-08T10:14:58.669Z,14.17
2019-06-08T10:17:27.991Z,12.27
2019-06-08T10:19:59.403Z,10.13
2019-06-08T10:22:28.281Z,16.37
2019-06-08T10:24:58.056Z,11.63
2019-06-08T10:27:28.880Z,12.43
2019-06-08T10:29:59.992Z,10.90
2019-06-08T10:32:28.330Z,13.17
2019-06-08T10:34:59.996Z,14.40
2019-06-08T10:37:28.354Z,10.47
2019-06-08T10:40:00.629Z,14.23
2019-06-08T10:42:27.605Z,9.97
2019-06-08T10:45:02.379Z,8.57
2019-06-08T10:47:29.527Z,11.13
2019-06-08T10:50:01.686Z,10.20
2019-06-08T10:52:28.152Z,11.37
2019-06-08T10:54:59.768Z,11.67
2019-06-08T10:57:28.027Z,15.50
2019-06-08T10:59:57.937Z,12.67
2019-06-08T11:02:28.136Z,11.40
2019-06-08T11:04:58.821Z,13.60
2019-06-08T11:07:27.976Z,13.93
2019-06-08T11:09:58.701Z,13.17
2019-06-08T11:12:28.339Z,11.43
2019-06-08T11:14:58.395Z,16.70
2019-06-08T11:17:27.994Z,14.70
2019-06-08T11:19:59.448Z,16.97
2019-06-08T11:22:27.874Z,11.73
2019-06-08T11:25:00.013Z,11.73
2019-06-08T11:27:29.512Z,10.73
2019-06-08T11:29:59.518Z,13.57
2019-06-08T11:32:32.079Z,15.57
2019-06-08T11:35:03.906Z,14.53
2019-06-08T11:37:32.738Z,9.00
2019-06-08T11:40:02.138Z,14.00
2019-06-08T11:42:30.893Z,12.70
2019-06-08T11:45:02.393Z,10.17
2019-06-08T11:47:33.308Z,11.93
2019-06-08T11:50:04.658Z,11.47
2019-06-08T11:52:33.626Z,13.97
2019-06-08T11:55:04.163Z,7.70
2019-06-08T11:57:37.342Z,10.50
2019-06-08T12:00:15.004Z,7.97
2019-06-08T12:02:41.302Z,11.33
2019-06-08T12:05:12.425Z,10.77
2019-06-08T12:07:39.768Z,14.07
2019-06-08T12:10:10.555Z,10.23
2019-06-08T12:12:38.787Z,9.83
2019-06-08T12:15:11.646Z,13.67
2019-06-08T12:17:39.259Z,11.87
2019-06-08T12:20:13.704Z,8.83
2019-06-08T12:22:40.506Z,8.77
2019-06-08T12:25:10.304Z,7.77
2019-06-08T12:27:40.180Z,7.20
2019-06-08T12:30:17.363Z,10.73
2019-06-08T12:32:39.448Z,11.47
2019-06-08T12:35:10.979Z,7.50
2019-06-08T12:37:39.869Z,8.57
2019-06-08T12:40:13.166Z,10.20
2019-06-08T12:42:46.251Z,10.83
2019-06-08T12:45:20.326Z,9.33
2019-06-08T12:47:48.750Z,8.60
2019-06-08T12:50:17.395Z,9.33
2019-06-08T12:52:48.830Z,6.63
2019-06-08T12:55:24.275Z,11.07
2019-06-08T12:57:48.461Z,9.20
2019-06-08T13:00:20.129Z,7.47
2019-06-08T13:02:53.273Z,6.73
2019-06-08T13:05:23.117Z,10.53
2019-06-08T13:07:52.142Z,9.90
2019-06-08T13:10:24.202Z,9.40
2019-06-08T13:12:52.833Z,9.57
2019-06-08T13:15:25.049Z,10.00
2019-06-08T13:17:53.737Z,6.70
2019-06-08T13:20:24.062Z,9.17
2019-06-08T13:22:57.526Z,11.30
2019-06-08T13:25:37.478Z,9.13
2019-06-08T13:27:58.281Z,6.53
2019-06-08T13:30:32.035Z,7.90
2019-06-08T13:32:59.078Z,9.80
2019-06-08T13:35:30.611Z,7.33
2019-06-08T13:37:59.128Z,6.87
2019-06-08T13:40:27.966Z,11.87
2019-06-08T13:42:58.230Z,7.27
2019-06-08T13:45:27.829Z,9.77
2019-06-08T13:47:58.685Z,7.30
2019-06-08T13:50:27.076Z,9.63
2019-06-08T13:52:55.797Z,14.23
2019-06-08T13:55:42.210Z,9.50
2019-06-08T13:57:54.961Z,16.03
2019-06-08T14:00:38.518Z,13.90
2019-06-08T14:03:08.774Z,11.20
2019-06-08T14:05:38.820Z,9.07
2019-06-08T14:08:10.590Z,12.80
2019-06-08T14:10:39.631Z,13.00
2019-06-08T14:13:08.873Z,10.07
2019-06-08T14:15:38.037Z,10.00
2019-06-08T14:18:08.851Z,6.17
2019-06-08T14:20:38.606Z,12.37
2019-06-08T14:23:09.178Z,10.10
2019-06-08T14:25:47.830Z,10.47
2019-06-08T14:28:08.946Z,11.33
2019-06-08T14:30:37.988Z,12.20
2019-06-08T14:33:08.378Z,11.27
2019-06-08T14:35:38.866Z,7.53
2019-06-08T14:38:07.527Z,11.53
2019-06-08T14:40:37.558Z,5.08
2019-06-08T14:43:10.487Z,11.12
2019-06-08T14:45:37.851Z,10.75
2019-06-08T14:48:08.214Z,6.37
2019-06-08T14:50:40.399Z,6.97
2019-06-08T14:53:08.449Z,7.25
2019-06-08T14:55:38.681Z,5.87
2019-06-08T14:58:08.368Z,10.35
2019-06-08T15:00:38.035Z,4.90
2019-06-08T15:03:07.731Z,8.45
2019-06-08T15:05:36.623Z,10.45
2019-06-08T15:08:08.121Z,9.87
2019-06-08T15:10:38.318Z,10.57
2019-06-08T15:13:07.705Z,7.00
2019-06-08T15:15:38.086Z,7.67
2019-06-08T15:18:08.389Z,7.33
2019-06-08T15:20:38.010Z,6.90
2019-06-08T15:23:08.319Z,9.50
2019-06-08T15:25:38.639Z,9.33
2019-06-08T15:28:08.237Z,7.37
2019-06-08T15:30:38.096Z,12.00
2019-06-08T15:33:06.899Z,9.03
2019-06-08T15:35:37.677Z,9.60
2019-06-08T15:38:08.169Z,9.30
2019-06-08T15:40:37.894Z,8.90
2019-06-08T15:43:08.587Z,6.93
2019-06-08T15:45:37.537Z,7.47
2019-06-08T15:48:07.981Z,10.90
2019-06-08T15:50:37.894Z,9.63
2019-06-08T15:53:08.308Z,8.23
2019-06-08T15:55:37.982Z,6.40
2019-06-08T15:58:08.900Z,8.43
2019-06-08T16:00:37.871Z,6.60
2019-06-08T16:03:06.440Z,7.30
2019-06-08T16:05:35.041Z,6.40
2019-06-08T16:08:03.676Z,9.33
2019-06-08T16:10:32.382Z,7.83
2019-06-08T16:13:01.025Z,7.53
2019-06-08T16:15:30.914Z,10.47
2019-06-08T16:17:59.615Z,10.43
2019-06-08T16:20:29.411Z,8.30
2019-06-08T16:22:58.027Z,7.50
2019-06-08T16:25:27.787Z,8.90
2019-06-08T16:27:56.411Z,11.70
2019-06-08T16:30:25.166Z,7.03
2019-06-08T16:32:56.669Z,7.53
2019-06-08T16:35:25.231Z,9.07
2019-06-08T16:37:55.004Z,11.63
2019-06-08T16:40:24.303Z,8.73
2019-06-08T16:42:54.824Z,7.97
2019-06-08T16:45:25.028Z,15.07
2019-06-08T16:47:54.093Z,13.07
2019-06-08T16:50:24.771Z,13.27
2019-06-08T16:52:53.013Z,8.03
2019-06-08T16:55:24.621Z,38.93
2019-06-08T16:57:54.721Z,6.90
2019-06-08T17:00:35.288Z,13.33
2019-06-08T17:02:54.279Z,6.53
2019-06-08T17:05:22.896Z,5.60
2019-06-08T17:07:51.610Z,5.33
2019-06-08T17:10:20.296Z,10.03
2019-06-08T17:12:48.892Z,6.57
2019-06-08T17:15:17.704Z,10.03
2019-06-08T17:17:46.610Z,8.47
2019-06-08T17:20:16.739Z,6.43
2019-06-08T17:22:45.645Z,8.80
2019-06-08T17:25:14.747Z,7.23
2019-06-08T17:27:43.418Z,4.90
2019-06-08T17:30:12.214Z,8.20
2019-06-08T17:32:42.146Z,6.97
2019-06-08T17:35:11.506Z,4.57
2019-06-08T17:37:40.260Z,9.30
2019-06-08T17:40:09.345Z,9.07
2019-06-08T17:42:37.983Z,11.17
2019-06-08T17:45:07.931Z,6.23
2019-06-08T17:47:36.633Z,9.93
2019-06-08T17:50:09.927Z,5.93
2019-06-08T17:52:38.916Z,10.10
2019-06-08T17:55:08.440Z,8.53
2019-06-08T17:57:47.307Z,9.07
2019-06-08T18:00:09.323Z,6.67
2019-06-08T18:02:41.840Z,6.63
2019-06-08T18:05:09.063Z,6.23
2019-06-08T18:07:39.991Z,6.10
2019-06-08T18:10:08.463Z,9.57
2019-06-08T18:12:41.179Z,7.40
2019-06-08T18:15:08.318Z,9.53
2019-06-08T18:17:42.198Z,10.30
2019-06-08T18:20:13.645Z,9.07
2019-06-08T18:22:44.367Z,6.63
2019-06-08T18:25:14.474Z,9.47
2019-06-08T18:28:01.796Z,9.37
2019-06-08T18:30:18.754Z,8.33
2019-06-08T18:32:48.385Z,10.93
2019-06-08T18:35:18.282Z,5.03
2019-06-08T18:37:48.642Z,6.77
2019-06-08T18:40:18.307Z,9.27
2019-06-08T18:42:48.783Z,7.80
2019-06-08T18:45:18.903Z,7.57
2019-06-08T18:47:48.385Z,9.90
2019-06-08T18:50:17.567Z,8.43
2019-06-08T18:52:49.455Z,11.00
2019-06-08T18:55:18.209Z,7.40
2019-06-08T18:57:49.062Z,11.23
2019-06-08T19:00:18.609Z,10.70
2019-06-08T19:02:53.597Z,12.07
2019-06-08T19:05:20.765Z,8.80
2019-06-08T19:07:50.112Z,6.33
2019-06-08T19:10:30.758Z,8.03
2019-06-08T19:12:59.341Z,10.87
2019-06-08T19:15:33.158Z,9.13
2019-06-08T19:18:02.135Z,13.50
2019-06-08T19:20:30.788Z,9.43
2019-06-08T19:22:59.774Z,11.97
2019-06-08T19:25:28.435Z,8.57
2019-06-08T19:27:57.983Z,8.33
2019-06-08T19:30:28.184Z,8.17
2019-06-08T19:32:57.902Z,11.90
2019-06-08T19:35:27.371Z,14.17
2019-06-08T19:37:58.174Z,6.17
2019-06-08T19:40:27.219Z,9.17
2019-06-08T19:43:00.483Z,8.57
2019-06-08T19:45:27.702Z,10.07
2019-06-08T19:47:57.728Z,9.33
2019-06-08T19:50:28.669Z,7.57
2019-06-08T19:52:58.102Z,6.17
2019-06-08T19:55:27.227Z,6.30
2019-06-08T19:57:57.581Z,10.50
2019-06-08T20:00:27.880Z,13.30
2019-06-08T20:02:58.234Z,9.43
2019-06-08T20:05:28.545Z,8.47
2019-06-08T20:07:57.707Z,9.63
2019-06-08T20:10:27.942Z,8.67
2019-06-08T20:12:57.844Z,11.87
2019-06-08T20:15:26.749Z,6.77
2019-06-08T20:17:57.532Z,4.77
2019-06-08T20:20:27.717Z,9.90
2019-06-08T20:22:58.525Z,9.60
2019-06-08T20:25:28.033Z,11.13
2019-06-08T20:27:58.663Z,9.80
2019-06-08T20:30:28.297Z,9.53
2019-06-08T20:32:57.630Z,9.23
2019-06-08T20:35:28.022Z,9.83
2019-06-08T20:37:57.842Z,7.47
2019-06-08T20:40:27.591Z,11.80
2019-06-08T20:42:57.754Z,11.47
2019-06-08T20:45:27.979Z,8.73
2019-06-08T20:47:58.556Z,10.77
2019-06-08T20:50:27.212Z,11.37
2019-06-08T20:52:57.634Z,14.73
2019-06-08T20:55:28.363Z,7.60
2019-06-08T20:57:57.627Z,5.50
2019-06-08T21:00:26.516Z,8.50
2019-06-08T21:03:01.732Z,13.77
2019-06-08T21:05:27.806Z,11.53
2019-06-08T21:07:58.853Z,11.77
2019-06-08T21:10:28.154Z,10.83
2019-06-08T21:12:58.745Z,7.57
2019-06-08T21:15:27.768Z,9.50
2019-06-08T21:17:56.452Z,10.53
2019-06-08T21:20:25.182Z,7.63
2019-06-08T21:22:55.046Z,13.70
2019-06-08T21:25:24.066Z,9.77
2019-06-08T21:27:54.019Z,11.13
2019-06-08T21:30:24.803Z,12.33
2019-06-08T21:32:55.821Z,11.63
2019-06-08T21:35:23.513Z,13.57
2019-06-08T21:37:53.411Z,14.43
2019-06-08T21:40:22.486Z,12.60
2019-06-08T21:42:53.595Z,12.80
2019-06-08T21:45:23.185Z,13.40
2019-06-08T21:47:53.407Z,14.13
2019-06-08T21:50:22.493Z,11.50
2019-06-08T21:52:51.946Z,14.70
2019-06-08T21:55:21.474Z,12.27
2019-06-08T21:57:52.672Z,14.63
2019-06-08T22:00:38.839Z,11.93
2019-06-08T22:02:52.049Z,10.33
2019-06-08T22:05:20.773Z,13.57
2019-06-08T22:07:50.076Z,11.80
2019-06-08T22:10:19.033Z,11.53
2019-06-08T22:12:48.344Z,11.17
2019-06-08T22:15:18.283Z,13.70
2019-06-08T22:17:47.750Z,12.93
2019-06-08T22:20:18.670Z,14.47
2019-06-08T22:22:47.548Z,14.77
2019-06-08T22:25:17.557Z,15.37
2019-06-08T22:27:46.326Z,15.27
2019-06-08T22:30:34.732Z,10.53
2019-06-08T22:32:47.353Z,16.27
2019-06-08T22:35:16.333Z,15.27
2019-06-08T22:37:45.066Z,14.77
2019-06-08T22:40:17.431Z,14.60
2019-06-08T22:42:47.922Z,16.93
2019-06-08T22:45:17.641Z,15.13
2019-06-08T22:47:47.788Z,19.67
2019-06-08T22:50:18.519Z,15.90
2019-06-08T22:52:47.822Z,12.83
2019-06-08T22:55:18.644Z,21.30
2019-06-08T22:57:47.948Z,15.67
2019-06-08T23:00:22.731Z,12.47
2019-06-08T23:02:50.878Z,13.23
2019-06-08T23:05:19.515Z,12.53
2019-06-08T23:07:48.859Z,14.30
2019-06-08T23:10:17.680Z,15.10
2019-06-08T23:12:47.209Z,16.77
2019-06-08T23:15:18.381Z,22.37
2019-06-08T23:17:47.951Z,18.73
2019-06-08T23:20:18.579Z,15.97
2019-06-08T23:22:47.607Z,17.77
2019-06-08T23:25:18.381Z,15.07
2019-06-08T23:27:48.400Z,23.37
2019-06-08T23:30:18.430Z,21.17
2019-06-08T23:32:48.125Z,23.90
2019-06-08T23:35:18.221Z,15.87
2019-06-08T23:37:47.804Z,18.97
2019-06-08T23:40:17.911Z,18.43
2019-06-08T23:42:47.682Z,17.67
2019-06-08T23:45:17.671Z,15.40
2019-06-08T23:47:48.067Z,15.00
2019-06-08T23:50:17.776Z,16.37
2019-06-08T23:52:47.767Z,16.33
2019-06-08T23:55:18.146Z,24.03
2019-06-08T23:57:47.065Z,14.63
